sensor_id;sensor_type;location;lat;lon;timestamp;pressure;altitude;pressure_sealevel;temperature;humidity
36062;BME280;22123;52.412;20.970;2022-07-03T00:00:30;101412.47;;;16.33;100.00
36062;BME280;22123;52.412;20.970;2022-07-03T00:02:56;101423.84;;;16.37;100.00
36062;BME280;22123;52.412;20.970;2022-07-03T00:05:21;101413.88;;;16.29;100.00
36062;BME280;22123;52.412;20.970;2022-07-03T00:07:47;101425.41;;;16.31;100.00
36062;BME280;22123;52.412;20.970;2022-07-03T00:10:13;101430.84;;;16.31;100.00
36062;BME280;22123;52.412;20.970;2022-07-03T00:12:38;101393.47;;;16.18;100.00
36062;BME280;22123;52.412;20.970;2022-07-03T00:15:04;101415.94;;;16.27;100.00
36062;BME280;22123;52.412;20.970;2022-07-03T00:17:30;101421.38;;;16.27;100.00
36062;BME280;22123;52.412;20.970;2022-07-03T00:19:56;101429.44;;;16.35;100.00
36062;BME280;22123;52.412;20.970;2022-07-03T00:22:24;101425.50;;;16.38;100.00
36062;BME280;22123;52.412;20.970;2022-07-03T00:24:52;101419.22;;;16.37;100.00
36062;BME280;22123;52.412;20.970;2022-07-03T00:27:19;101419.03;;;16.39;100.00
36062;BME280;22123;52.412;20.970;2022-07-03T00:29:45;101425.13;;;16.41;100.00
36062;BME280;22123;52.412;20.970;2022-07-03T00:32:13;101418.56;;;16.35;100.00
36062;BME280;22123;52.412;20.970;2022-07-03T00:34:39;101420.63;;;16.33;100.00
36062;BME280;22123;52.412;20.970;2022-07-03T00:37:09;101424.09;;;16.27;100.00
36062;BME280;22123;52.412;20.970;2022-07-03T00:39:39;101418.19;;;16.23;100.00
36062;BME280;22123;52.412;20.970;2022-07-03T00:42:07;101422.97;;;16.21;100.00
36062;BME280;22123;52.412;20.970;2022-07-03T00:44:42;101414.06;;;16.12;100.00
36062;BME280;22123;52.412;20.970;2022-07-03T00:47:08;101409.19;;;16.08;100.00
36062;BME280;22123;52.412;20.970;2022-07-03T00:49:35;101407.19;;;16.02;100.00
36062;BME280;22123;52.412;20.970;2022-07-03T00:52:04;101418.56;;;16.05;100.00
36062;BME280;22123;52.412;20.970;2022-07-03T00:54:33;101406.94;;;15.96;100.00
36062;BME280;22123;52.412;20.970;2022-07-03T00:57:00;101403.44;;;15.88;100.00
36062;BME280;22123;52.412;20.970;2022-07-03T00:59:25;101392.47;;;15.81;100.00
36062;BME280;22123;52.412;20.970;2022-07-03T01:01:59;101407.75;;;15.82;100.00
36062;BME280;22123;52.412;20.970;2022-07-03T01:04:52;101405.56;;;15.77;100.00
36062;BME280;22123;52.412;20.970;2022-07-03T01:13:17;101411.81;;;15.78;100.00
36062;BME280;22123;52.412;20.970;2022-07-03T01:18:43;101397.28;;;15.71;100.00
36062;BME280;22123;52.412;20.970;2022-07-03T01:24:37;101390.66;;;15.73;100.00
36062;BME280;22123;52.412;20.970;2022-07-03T01:27:08;101394.69;;;15.77;100.00
36062;BME280;22123;52.412;20.970;2022-07-03T01:29:44;101395.72;;;15.76;100.00
36062;BME280;22123;52.412;20.970;2022-07-03T01:32:15;101381.19;;;15.69;100.00
36062;BME280;22123;52.412;20.970;2022-07-03T01:34:43;101383.41;;;15.65;100.00
36062;BME280;22123;52.412;20.970;2022-07-03T01:37:10;101396.16;;;15.65;100.00
36062;BME280;22123;52.412;20.970;2022-07-03T01:39:42;101381.63;;;15.58;100.00
36062;BME280;22123;52.412;20.970;2022-07-03T01:42:10;101383.97;;;15.61;100.00
36062;BME280;22123;52.412;20.970;2022-07-03T01:44:38;101378.25;;;15.56;100.00
36062;BME280;22123;52.412;20.970;2022-07-03T01:47:05;101370.00;;;15.49;100.00
36062;BME280;22123;52.412;20.970;2022-07-03T01:49:32;101371.75;;;15.42;100.00
36062;BME280;22123;52.412;20.970;2022-07-03T01:51:58;101367.91;;;15.36;100.00
36062;BME280;22123;52.412;20.970;2022-07-03T01:54:28;101366.03;;;15.37;100.00
36062;BME280;22123;52.412;20.970;2022-07-03T01:56:55;101370.69;;;15.28;100.00
36062;BME280;22123;52.412;20.970;2022-07-03T01:59:20;101375.81;;;15.23;100.00
36062;BME280;22123;52.412;20.970;2022-07-03T02:02:09;101369.09;;;15.10;100.00
36062;BME280;22123;52.412;20.970;2022-07-03T02:05:08;101368.13;;;15.03;100.00
36062;BME280;22123;52.412;20.970;2022-07-03T02:07:45;101379.47;;;15.07;100.00
36062;BME280;22123;52.412;20.970;2022-07-03T02:10:15;101372.53;;;15.04;100.00
36062;BME280;22123;52.412;20.970;2022-07-03T02:12:48;101372.25;;;14.99;100.00
36062;BME280;22123;52.412;20.970;2022-07-03T02:15:18;101371.91;;;14.94;100.00
36062;BME280;22123;52.412;20.970;2022-07-03T02:17:46;101368.75;;;14.90;100.00
36062;BME280;22123;52.412;20.970;2022-07-03T02:20:15;101365.53;;;14.87;100.00
36062;BME280;22123;52.412;20.970;2022-07-03T02:22:43;101375.81;;;14.91;100.00
36062;BME280;22123;52.412;20.970;2022-07-03T02:25:21;101378.91;;;14.88;100.00
36062;BME280;22123;52.412;20.970;2022-07-03T02:30:36;101380.28;;;14.84;100.00
36062;BME280;22123;52.412;20.970;2022-07-03T02:33:04;101375.72;;;14.85;100.00
36062;BME280;22123;52.412;20.970;2022-07-03T02:35:33;101363.03;;;14.77;100.00
36062;BME280;22123;52.412;20.970;2022-07-03T02:38:17;101378.44;;;14.85;100.00
36062;BME280;22123;52.412;20.970;2022-07-03T02:43:57;101381.63;;;14.88;100.00
36062;BME280;22123;52.412;20.970;2022-07-03T02:54:45;101367.75;;;14.83;100.00
36062;BME280;22123;52.412;20.970;2022-07-03T02:57:21;101374.81;;;14.92;100.00
36062;BME280;22123;52.412;20.970;2022-07-03T02:59:55;101377.16;;;14.95;100.00
36062;BME280;22123;52.412;20.970;2022-07-03T03:11:03;101360.44;;;15.15;100.00
36062;BME280;22123;52.412;20.970;2022-07-03T03:13:31;101373.56;;;15.26;100.00
36062;BME280;22123;52.412;20.970;2022-07-03T03:16:08;101373.22;;;15.29;100.00
36062;BME280;22123;52.412;20.970;2022-07-03T03:18:36;101375.56;;;15.33;100.00
36062;BME280;22123;52.412;20.970;2022-07-03T03:21:03;101356.75;;;15.31;100.00
36062;BME280;22123;52.412;20.970;2022-07-03T03:26:00;101342.88;;;15.26;100.00
36062;BME280;22123;52.412;20.970;2022-07-03T03:28:25;101351.34;;;15.31;100.00
36062;BME280;22123;52.412;20.970;2022-07-03T03:30:51;101354.88;;;15.32;100.00
36062;BME280;22123;52.412;20.970;2022-07-03T03:33:16;101348.44;;;15.33;100.00
36062;BME280;22123;52.412;20.970;2022-07-03T03:35:42;101350.28;;;15.32;100.00
36062;BME280;22123;52.412;20.970;2022-07-03T03:38:08;101343.38;;;15.29;100.00
36062;BME280;22123;52.412;20.970;2022-07-03T03:40:34;101347.75;;;15.30;100.00
36062;BME280;22123;52.412;20.970;2022-07-03T03:43:01;101352.16;;;15.32;100.00
36062;BME280;22123;52.412;20.970;2022-07-03T03:45:26;101348.63;;;15.31;100.00
36062;BME280;22123;52.412;20.970;2022-07-03T03:47:52;101350.47;;;15.30;100.00
36062;BME280;22123;52.412;20.970;2022-07-03T03:50:17;101346.09;;;15.29;100.00
36062;BME280;22123;52.412;20.970;2022-07-03T03:52:43;101344.69;;;15.34;100.00
36062;BME280;22123;52.412;20.970;2022-07-03T03:55:09;101341.31;;;15.32;100.00
36062;BME280;22123;52.412;20.970;2022-07-03T03:57:35;101354.13;;;15.38;100.00
36062;BME280;22123;52.412;20.970;2022-07-03T04:00:01;101346.00;;;15.38;100.00
36062;BME280;22123;52.412;20.970;2022-07-03T04:02:27;101336.72;;;15.32;100.00
36062;BME280;22123;52.412;20.970;2022-07-03T04:04:52;101333.81;;;15.34;100.00
36062;BME280;22123;52.412;20.970;2022-07-03T04:07:18;101327.75;;;15.32;100.00
36062;BME280;22123;52.412;20.970;2022-07-03T04:09:43;101336.38;;;15.35;100.00
36062;BME280;22123;52.412;20.970;2022-07-03T04:12:11;101339.56;;;15.39;100.00
36062;BME280;22123;52.412;20.970;2022-07-03T04:14:36;101340.56;;;15.38;100.00
36062;BME280;22123;52.412;20.970;2022-07-03T04:17:02;101329.06;;;15.36;100.00
36062;BME280;22123;52.412;20.970;2022-07-03T04:19:28;101348.00;;;15.44;100.00
36062;BME280;22123;52.412;20.970;2022-07-03T04:21:54;101351.75;;;15.43;100.00
36062;BME280;22123;52.412;20.970;2022-07-03T04:24:19;101341.34;;;15.46;100.00
36062;BME280;22123;52.412;20.970;2022-07-03T04:26:45;101348.97;;;15.51;100.00
36062;BME280;22123;52.412;20.970;2022-07-03T04:29:11;101341.84;;;15.50;100.00
36062;BME280;22123;52.412;20.970;2022-07-03T04:31:36;101346.91;;;15.53;100.00
36062;BME280;22123;52.412;20.970;2022-07-03T04:34:02;101347.72;;;15.54;100.00
36062;BME280;22123;52.412;20.970;2022-07-03T04:36:27;101342.31;;;15.54;100.00
36062;BME280;22123;52.412;20.970;2022-07-03T04:38:54;101335.84;;;15.55;100.00
36062;BME280;22123;52.412;20.970;2022-07-03T04:41:19;101340.72;;;15.59;100.00
36062;BME280;22123;52.412;20.970;2022-07-03T04:43:45;101338.69;;;15.61;100.00
36062;BME280;22123;52.412;20.970;2022-07-03T04:46:10;101351.88;;;15.64;100.00
36062;BME280;22123;52.412;20.970;2022-07-03T04:48:36;101335.59;;;15.64;100.00
36062;BME280;22123;52.412;20.970;2022-07-03T04:51:01;101336.25;;;15.67;100.00
36062;BME280;22123;52.412;20.970;2022-07-03T04:53:26;101329.13;;;15.65;100.00
36062;BME280;22123;52.412;20.970;2022-07-03T04:55:52;101333.47;;;15.75;100.00
36062;BME280;22123;52.412;20.970;2022-07-03T04:58:18;101335.34;;;15.74;100.00
36062;BME280;22123;52.412;20.970;2022-07-03T05:00:44;101344.63;;;15.80;100.00
36062;BME280;22123;52.412;20.970;2022-07-03T05:03:09;101340.06;;;15.80;100.00
36062;BME280;22123;52.412;20.970;2022-07-03T05:05:35;101325.13;;;15.76;100.00
36062;BME280;22123;52.412;20.970;2022-07-03T05:08:00;101340.31;;;15.86;100.00
36062;BME280;22123;52.412;20.970;2022-07-03T05:10:26;101342.03;;;15.87;100.00
36062;BME280;22123;52.412;20.970;2022-07-03T05:12:52;101340.81;;;15.89;100.00
36062;BME280;22123;52.412;20.970;2022-07-03T05:15:18;101343.16;;;15.92;100.00
36062;BME280;22123;52.412;20.970;2022-07-03T05:17:44;101339.22;;;15.95;100.00
36062;BME280;22123;52.412;20.970;2022-07-03T05:20:09;101336.97;;;15.98;100.00
36062;BME280;22123;52.412;20.970;2022-07-03T05:22:51;101346.06;;;16.06;100.00
36062;BME280;22123;52.412;20.970;2022-07-03T05:25:17;101346.72;;;16.08;100.00
36062;BME280;22123;52.412;20.970;2022-07-03T05:27:43;101344.47;;;16.11;100.00
36062;BME280;22123;52.412;20.970;2022-07-03T05:30:09;101352.03;;;16.16;100.00
36062;BME280;22123;52.412;20.970;2022-07-03T05:32:35;101354.13;;;16.14;100.00
36062;BME280;22123;52.412;20.970;2022-07-03T05:35:00;101353.56;;;16.19;100.00
36062;BME280;22123;52.412;20.970;2022-07-03T05:37:26;101359.09;;;16.25;100.00
36062;BME280;22123;52.412;20.970;2022-07-03T05:39:52;101351.97;;;16.24;100.00
36062;BME280;22123;52.412;20.970;2022-07-03T05:42:17;101351.56;;;16.27;100.00
36062;BME280;22123;52.412;20.970;2022-07-03T05:44:43;101351.19;;;16.30;100.00
36062;BME280;22123;52.412;20.970;2022-07-03T05:47:10;101343.78;;;16.39;100.00
36062;BME280;22123;52.412;20.970;2022-07-03T05:49:36;101341.94;;;16.40;100.00
36062;BME280;22123;52.412;20.970;2022-07-03T05:52:01;101343.41;;;16.42;100.00
36062;BME280;22123;52.412;20.970;2022-07-03T05:54:27;101351.00;;;16.47;100.00
36062;BME280;22123;52.412;20.970;2022-07-03T05:56:52;101331.13;;;16.46;100.00
36062;BME280;22123;52.412;20.970;2022-07-03T05:59:17;101352.00;;;16.61;100.00
36062;BME280;22123;52.412;20.970;2022-07-03T06:01:43;101358.50;;;16.60;100.00
36062;BME280;22123;52.412;20.970;2022-07-03T06:04:08;101361.66;;;16.63;100.00
36062;BME280;22123;52.412;20.970;2022-07-03T06:06:34;101350.59;;;16.65;100.00
36062;BME280;22123;52.412;20.970;2022-07-03T06:08:59;101356.84;;;16.65;100.00
36062;BME280;22123;52.412;20.970;2022-07-03T06:11:25;101340.09;;;16.62;100.00
36062;BME280;22123;52.412;20.970;2022-07-03T06:13:50;101350.22;;;16.68;100.00
36062;BME280;22123;52.412;20.970;2022-07-03T06:16:16;101354.44;;;16.71;100.00
36062;BME280;22123;52.412;20.970;2022-07-03T06:18:41;101350.28;;;16.75;100.00
36062;BME280;22123;52.412;20.970;2022-07-03T06:21:07;101353.34;;;16.86;100.00
36062;BME280;22123;52.412;20.970;2022-07-03T06:23:32;101357.84;;;16.94;100.00
36062;BME280;22123;52.412;20.970;2022-07-03T06:25:58;101343.13;;;16.89;100.00
36062;BME280;22123;52.412;20.970;2022-07-03T06:28:23;101362.34;;;17.02;100.00
36062;BME280;22123;52.412;20.970;2022-07-03T06:30:49;101366.16;;;17.08;100.00
36062;BME280;22123;52.412;20.970;2022-07-03T06:33:14;101354.91;;;17.11;100.00
36062;BME280;22123;52.412;20.970;2022-07-03T06:35:40;101351.50;;;17.09;100.00
36062;BME280;22123;52.412;20.970;2022-07-03T06:38:05;101366.31;;;17.21;100.00
36062;BME280;22123;52.412;20.970;2022-07-03T06:40:31;101368.03;;;17.29;100.00
36062;BME280;22123;52.412;20.970;2022-07-03T06:42:57;101369.53;;;17.31;100.00
36062;BME280;22123;52.412;20.970;2022-07-03T06:45:23;101373.59;;;17.42;100.00
36062;BME280;22123;52.412;20.970;2022-07-03T06:47:48;101366.81;;;17.53;100.00
36062;BME280;22123;52.412;20.970;2022-07-03T06:50:14;101363.09;;;17.61;100.00
36062;BME280;22123;52.412;20.970;2022-07-03T06:52:39;101367.16;;;17.71;100.00
36062;BME280;22123;52.412;20.970;2022-07-03T06:55:05;101369.78;;;17.86;100.00
36062;BME280;22123;52.412;20.970;2022-07-03T06:57:31;101354.56;;;17.92;100.00
36062;BME280;22123;52.412;20.970;2022-07-03T06:59:56;101358.59;;;18.03;100.00
36062;BME280;22123;52.412;20.970;2022-07-03T07:02:22;101344.00;;;18.11;100.00
36062;BME280;22123;52.412;20.970;2022-07-03T07:04:47;101347.19;;;18.28;100.00
36062;BME280;22123;52.412;20.970;2022-07-03T07:07:12;101351.88;;;18.40;100.00
36062;BME280;22123;52.412;20.970;2022-07-03T07:09:38;101343.56;;;18.55;100.00
36062;BME280;22123;52.412;20.970;2022-07-03T07:12:04;101341.31;;;18.72;100.00
36062;BME280;22123;52.412;20.970;2022-07-03T07:14:29;101328.59;;;18.86;100.00
36062;BME280;22123;52.412;20.970;2022-07-03T07:16:55;101320.00;;;18.96;100.00
36062;BME280;22123;52.412;20.970;2022-07-03T07:19:20;101313.75;;;19.09;100.00
36062;BME280;22123;52.412;20.970;2022-07-03T07:21:46;101318.78;;;19.25;100.00
36062;BME280;22123;52.412;20.970;2022-07-03T07:24:12;101318.56;;;19.47;100.00
36062;BME280;22123;52.412;20.970;2022-07-03T07:26:37;101312.91;;;19.55;100.00
36062;BME280;22123;52.412;20.970;2022-07-03T07:29:02;101315.41;;;19.63;100.00
36062;BME280;22123;52.412;20.970;2022-07-03T07:31:28;101301.31;;;19.73;100.00
36062;BME280;22123;52.412;20.970;2022-07-03T07:33:53;101314.97;;;19.87;100.00
36062;BME280;22123;52.412;20.970;2022-07-03T07:36:19;101298.59;;;19.93;100.00
36062;BME280;22123;52.412;20.970;2022-07-03T07:38:44;101306.94;;;20.12;100.00
36062;BME280;22123;52.412;20.970;2022-07-03T07:41:10;101314.88;;;20.20;100.00
36062;BME280;22123;52.412;20.970;2022-07-03T07:43:35;101307.69;;;20.32;100.00
36062;BME280;22123;52.412;20.970;2022-07-03T07:46:01;101303.34;;;20.63;100.00
36062;BME280;22123;52.412;20.970;2022-07-03T07:48:26;101306.78;;;20.91;100.00
36062;BME280;22123;52.412;20.970;2022-07-03T07:50:52;101308.97;;;21.07;100.00
36062;BME280;22123;52.412;20.970;2022-07-03T07:53:17;101302.56;;;21.20;100.00
36062;BME280;22123;52.412;20.970;2022-07-03T07:55:43;101292.81;;;21.31;100.00
36062;BME280;22123;52.412;20.970;2022-07-03T07:58:08;101290.16;;;21.43;100.00
36062;BME280;22123;52.412;20.970;2022-07-03T08:00:34;101293.75;;;21.68;100.00
36062;BME280;22123;52.412;20.970;2022-07-03T08:03:00;101283.81;;;21.74;100.00
36062;BME280;22123;52.412;20.970;2022-07-03T08:05:44;101296.22;;;21.95;100.00
36062;BME280;22123;52.412;20.970;2022-07-03T08:10:43;101292.69;;;22.25;100.00
36062;BME280;22123;52.412;20.970;2022-07-03T08:13:10;101295.69;;;22.23;100.00
36062;BME280;22123;52.412;20.970;2022-07-03T08:15:36;101294.16;;;22.28;100.00
36062;BME280;22123;52.412;20.970;2022-07-03T08:18:02;101300.47;;;22.47;100.00
36062;BME280;22123;52.412;20.970;2022-07-03T08:20:28;101290.09;;;22.49;100.00
36062;BME280;22123;52.412;20.970;2022-07-03T08:22:53;101291.13;;;22.66;100.00
36062;BME280;22123;52.412;20.970;2022-07-03T08:25:19;101289.97;;;22.74;100.00
36062;BME280;22123;52.412;20.970;2022-07-03T08:27:44;101295.81;;;22.78;100.00
36062;BME280;22123;52.412;20.970;2022-07-03T08:30:13;101276.88;;;22.88;100.00
36062;BME280;22123;52.412;20.970;2022-07-03T08:32:45;101275.44;;;22.85;100.00
36062;BME280;22123;52.412;20.970;2022-07-03T08:35:11;101279.84;;;22.86;100.00
36062;BME280;22123;52.412;20.970;2022-07-03T08:37:37;101275.84;;;23.01;100.00
36062;BME280;22123;52.412;20.970;2022-07-03T08:40:09;101266.84;;;22.93;100.00
36062;BME280;22123;52.412;20.970;2022-07-03T08:42:37;101269.81;;;23.11;100.00
36062;BME280;22123;52.412;20.970;2022-07-03T08:45:07;101273.28;;;23.30;100.00
36062;BME280;22123;52.412;20.970;2022-07-03T08:47:45;101264.53;;;23.56;100.00
36062;BME280;22123;52.412;20.970;2022-07-03T08:50:13;101271.84;;;23.74;100.00
36062;BME280;22123;52.412;20.970;2022-07-03T08:52:40;101263.22;;;23.71;100.00
36062;BME280;22123;52.412;20.970;2022-07-03T08:55:07;101248.66;;;23.70;100.00
36062;BME280;22123;52.412;20.970;2022-07-03T08:57:33;101261.69;;;23.99;100.00
36062;BME280;22123;52.412;20.970;2022-07-03T09:00:02;101255.97;;;24.29;100.00
36062;BME280;22123;52.412;20.970;2022-07-03T09:02:30;101253.59;;;24.50;100.00
36062;BME280;22123;52.412;20.970;2022-07-03T09:04:57;101248.59;;;24.75;100.00
36062;BME280;22123;52.412;20.970;2022-07-03T09:07:24;101260.97;;;25.07;100.00
36062;BME280;22123;52.412;20.970;2022-07-03T09:09:51;101252.53;;;24.96;100.00
36062;BME280;22123;52.412;20.970;2022-07-03T09:12:17;101248.06;;;24.61;100.00
36062;BME280;22123;52.412;20.970;2022-07-03T09:14:42;101246.97;;;24.34;100.00
36062;BME280;22123;52.412;20.970;2022-07-03T09:17:09;101237.03;;;24.04;100.00
36062;BME280;22123;52.412;20.970;2022-07-03T09:19:45;101250.88;;;24.09;100.00
36062;BME280;22123;52.412;20.970;2022-07-03T09:22:28;101253.03;;;24.07;100.00
36062;BME280;22123;52.412;20.970;2022-07-03T09:25:11;101249.91;;;24.15;100.00
36062;BME280;22123;52.412;20.970;2022-07-03T09:27:48;101246.84;;;24.00;100.00
36062;BME280;22123;52.412;20.970;2022-07-03T09:30:14;101239.91;;;23.73;100.00
36062;BME280;22123;52.412;20.970;2022-07-03T09:35:25;101244.97;;;23.88;100.00
36062;BME280;22123;52.412;20.970;2022-07-03T09:37:58;101244.84;;;24.24;100.00
36062;BME280;22123;52.412;20.970;2022-07-03T09:40:26;101237.66;;;24.35;100.00
36062;BME280;22123;52.412;20.970;2022-07-03T09:43:04;101237.41;;;24.24;100.00
36062;BME280;22123;52.412;20.970;2022-07-03T09:45:49;101239.88;;;24.09;100.00
36062;BME280;22123;52.412;20.970;2022-07-03T09:50:47;101223.88;;;23.82;100.00
36062;BME280;22123;52.412;20.970;2022-07-03T09:53:12;101224.63;;;23.89;100.00
36062;BME280;22123;52.412;20.970;2022-07-03T09:55:38;101225.78;;;24.05;100.00
36062;BME280;22123;52.412;20.970;2022-07-03T09:58:03;101227.53;;;24.23;100.00
36062;BME280;22123;52.412;20.970;2022-07-03T10:00:31;101214.94;;;24.27;100.00
36062;BME280;22123;52.412;20.970;2022-07-03T10:03:06;101219.84;;;24.25;100.00
36062;BME280;22123;52.412;20.970;2022-07-03T10:05:33;101226.06;;;24.61;100.00
36062;BME280;22123;52.412;20.970;2022-07-03T10:08:00;101220.56;;;25.12;100.00
36062;BME280;22123;52.412;20.970;2022-07-03T10:10:31;101214.00;;;25.69;100.00
36062;BME280;22123;52.412;20.970;2022-07-03T10:12:57;101210.44;;;25.96;100.00
36062;BME280;22123;52.412;20.970;2022-07-03T10:15:24;101213.84;;;26.26;100.00
36062;BME280;22123;52.412;20.970;2022-07-03T10:17:53;101200.72;;;26.65;100.00
36062;BME280;22123;52.412;20.970;2022-07-03T10:20:30;101209.69;;;27.15;100.00
36062;BME280;22123;52.412;20.970;2022-07-03T10:22:56;101205.09;;;27.79;100.00
36062;BME280;22123;52.412;20.970;2022-07-03T10:25:22;101198.13;;;28.50;100.00
36062;BME280;22123;52.412;20.970;2022-07-03T10:27:49;101196.78;;;29.14;100.00
36062;BME280;22123;52.412;20.970;2022-07-03T10:30:17;101192.69;;;29.88;100.00
36062;BME280;22123;52.412;20.970;2022-07-03T10:32:47;101186.59;;;30.75;100.00
36062;BME280;22123;52.412;20.970;2022-07-03T10:35:16;101177.84;;;31.46;100.00
36062;BME280;22123;52.412;20.970;2022-07-03T10:40:59;101183.78;;;32.97;100.00
36062;BME280;22123;52.412;20.970;2022-07-03T10:43:48;101183.97;;;33.33;74.31
36062;BME280;22123;52.412;20.970;2022-07-03T10:46:33;101167.78;;;33.72;44.37
36062;BME280;22123;52.412;20.970;2022-07-03T10:51:59;101169.25;;;34.34;42.73
36062;BME280;22123;52.412;20.970;2022-07-03T10:54:31;101169.47;;;34.37;40.74
36062;BME280;22123;52.412;20.970;2022-07-03T11:12:59;101147.28;;;32.46;43.17
36062;BME280;22123;52.412;20.970;2022-07-03T11:20:55;101135.31;;;30.92;47.79
36062;BME280;22123;52.412;20.970;2022-07-03T11:41:29;101123.06;;;28.21;56.58
36062;BME280;22123;52.412;20.970;2022-07-03T11:44:02;101112.25;;;28.04;57.21
36062;BME280;22123;52.412;20.970;2022-07-03T11:46:32;101112.25;;;27.99;54.41
36062;BME280;22123;52.412;20.970;2022-07-03T11:49:12;101118.22;;;27.70;57.88
36062;BME280;22123;52.412;20.970;2022-07-03T11:51:40;101112.59;;;27.39;57.45
36062;BME280;22123;52.412;20.970;2022-07-03T11:54:06;101112.44;;;27.18;59.03
36062;BME280;22123;52.412;20.970;2022-07-03T11:56:32;101102.88;;;26.88;62.38
36062;BME280;22123;52.412;20.970;2022-07-03T11:58:59;101113.81;;;26.68;64.36
36062;BME280;22123;52.412;20.970;2022-07-03T12:06:33;101095.34;;;26.14;71.63
36062;BME280;22123;52.412;20.970;2022-07-03T12:08:59;101092.19;;;26.00;79.12
36062;BME280;22123;52.412;20.970;2022-07-03T12:11:24;101093.19;;;25.94;89.81
36062;BME280;22123;52.412;20.970;2022-07-03T12:13:50;101097.72;;;25.78;73.65
36062;BME280;22123;52.412;20.970;2022-07-03T12:16:18;101094.72;;;25.57;72.83
36062;BME280;22123;52.412;20.970;2022-07-03T12:18:51;101100.50;;;25.33;74.15
36062;BME280;22123;52.412;20.970;2022-07-03T12:21:35;101088.81;;;25.04;73.83
36062;BME280;22123;52.412;20.970;2022-07-03T12:24:09;101083.88;;;24.89;73.31
36062;BME280;22123;52.412;20.970;2022-07-03T12:26:35;101087.72;;;24.88;80.02
36062;BME280;22123;52.412;20.970;2022-07-03T12:29:09;101097.75;;;24.77;73.25
36062;BME280;22123;52.412;20.970;2022-07-03T12:31:38;101083.50;;;24.63;74.26
36062;BME280;22123;52.412;20.970;2022-07-03T12:34:05;101079.31;;;24.44;73.86
36062;BME280;22123;52.412;20.970;2022-07-03T12:36:30;101097.34;;;24.35;77.13
36062;BME280;22123;52.412;20.970;2022-07-03T12:38:57;101087.31;;;24.28;79.26
36062;BME280;22123;52.412;20.970;2022-07-03T12:41:24;101089.81;;;24.30;85.33
36062;BME280;22123;52.412;20.970;2022-07-03T12:43:50;101085.31;;;24.24;74.85
36062;BME280;22123;52.412;20.970;2022-07-03T12:46:24;101085.06;;;24.25;77.89
36062;BME280;22123;52.412;20.970;2022-07-03T12:48:55;101081.91;;;24.34;75.50
36062;BME280;22123;52.412;20.970;2022-07-03T12:51:57;101072.06;;;24.38;74.13
36062;BME280;22123;52.412;20.970;2022-07-03T12:54:31;101075.31;;;24.35;73.10
36062;BME280;22123;52.412;20.970;2022-07-03T12:57:07;101068.72;;;24.36;77.74
36062;BME280;22123;52.412;20.970;2022-07-03T13:00:17;101075.91;;;24.54;79.68
36062;BME280;22123;52.412;20.970;2022-07-03T13:02:44;101060.09;;;24.61;83.98
36062;BME280;22123;52.412;20.970;2022-07-03T13:05:24;101061.72;;;24.79;93.28
36062;BME280;22123;52.412;20.970;2022-07-03T13:07:54;101062.44;;;24.91;77.70
36062;BME280;22123;52.412;20.970;2022-07-03T13:10:23;101066.34;;;24.95;77.75
36062;BME280;22123;52.412;20.970;2022-07-03T13:12:53;101062.25;;;24.98;86.57
36062;BME280;22123;52.412;20.970;2022-07-03T13:15:20;101063.66;;;25.00;81.76
36062;BME280;22123;52.412;20.970;2022-07-03T13:20:23;101061.81;;;24.84;81.70
36062;BME280;22123;52.412;20.970;2022-07-03T13:22:53;101054.13;;;24.69;79.95
36062;BME280;22123;52.412;20.970;2022-07-03T13:25:19;101054.59;;;24.61;82.51
36062;BME280;22123;52.412;20.970;2022-07-03T13:27:45;101050.63;;;24.40;82.39
36062;BME280;22123;52.412;20.970;2022-07-03T13:30:18;101049.53;;;24.24;79.43
36062;BME280;22123;52.412;20.970;2022-07-03T13:32:44;101041.34;;;23.95;75.68
36062;BME280;22123;52.412;20.970;2022-07-03T13:35:11;101044.88;;;23.78;76.13
36062;BME280;22123;52.412;20.970;2022-07-03T13:37:36;101034.66;;;23.62;75.97
36062;BME280;22123;52.412;20.970;2022-07-03T13:40:04;101040.91;;;23.57;78.67
36062;BME280;22123;52.412;20.970;2022-07-03T13:42:30;101026.38;;;23.45;80.65
36062;BME280;22123;52.412;20.970;2022-07-03T13:44:55;101032.38;;;23.42;81.33
36062;BME280;22123;52.412;20.970;2022-07-03T13:47:21;101024.13;;;23.42;84.60
36062;BME280;22123;52.412;20.970;2022-07-03T13:49:46;101014.72;;;23.38;86.58
36062;BME280;22123;52.412;20.970;2022-07-03T13:52:12;101023.03;;;23.43;100.00
36062;BME280;22123;52.412;20.970;2022-07-03T13:54:38;101024.31;;;23.52;100.00
36062;BME280;22123;52.412;20.970;2022-07-03T13:57:04;101018.91;;;23.57;89.29
36062;BME280;22123;52.412;20.970;2022-07-03T13:59:29;101016.53;;;23.78;86.42
36062;BME280;22123;52.412;20.970;2022-07-03T14:01:56;101018.31;;;23.84;82.08
36062;BME280;22123;52.412;20.970;2022-07-03T14:04:22;101009.41;;;23.77;78.71
36062;BME280;22123;52.412;20.970;2022-07-03T14:06:48;101005.84;;;23.93;84.09
36062;BME280;22123;52.412;20.970;2022-07-03T14:09:13;101012.78;;;24.13;88.05
36062;BME280;22123;52.412;20.970;2022-07-03T14:11:38;101009.72;;;24.26;83.13
36062;BME280;22123;52.412;20.970;2022-07-03T14:14:04;101003.03;;;24.22;81.01
36062;BME280;22123;52.412;20.970;2022-07-03T14:16:29;101000.78;;;24.19;78.75